createdAt,value
2018-11-04T00:01:24.625Z,17.17
2018-11-04T00:03:53.610Z,16.53
2018-11-04T00:06:22.758Z,17.47
2018-11-04T00:08:51.850Z,17.73
2018-11-04T00:11:20.995Z,17.43
2018-11-04T00:13:50.133Z,16.50
2018-11-04T00:16:19.399Z,16.70
2018-11-04T00:18:48.390Z,16.87
2018-11-04T00:21:18.082Z,16.43
2018-11-04T00:23:47.345Z,16.90
2018-11-04T00:26:16.403Z,16.83
2018-11-04T00:28:45.426Z,16.07
2018-11-04T00:31:14.577Z,17.33
2018-11-04T00:33:43.726Z,18.13
2018-11-04T00:36:12.463Z,18.63
2018-11-04T00:38:41.390Z,18.40
2018-11-04T00:41:10.565Z,20.80
2018-11-04T00:43:39.591Z,21.00
2018-11-04T00:46:08.794Z,22.57
2018-11-04T00:48:38.035Z,21.60
2018-11-04T00:51:07.487Z,21.63
2018-11-04T00:53:36.482Z,21.93
2018-11-04T00:56:05.805Z,23.17
2018-11-04T00:58:34.718Z,22.30
2018-11-04T01:01:03.983Z,22.07
2018-11-04T01:03:33.218Z,22.83
2018-11-04T01:06:02.519Z,22.80
2018-11-04T01:08:31.355Z,24.17
2018-11-04T01:11:00.269Z,26.13
2018-11-04T01:13:29.184Z,24.57
2018-11-04T01:15:58.326Z,23.60
2018-11-04T01:18:27.286Z,26.40
2018-11-04T01:20:56.546Z,25.97
2018-11-04T01:23:25.582Z,26.67
2018-11-04T01:25:54.762Z,25.60
2018-11-04T01:28:23.500Z,23.90
2018-11-04T01:30:52.578Z,21.63
2018-11-04T01:33:21.758Z,21.50
2018-11-04T01:35:50.832Z,24.33
2018-11-04T01:38:19.701Z,23.60
2018-11-04T01:40:48.897Z,24.30
2018-11-04T01:43:17.738Z,25.83
2018-11-04T01:45:46.635Z,26.80
2018-11-04T01:48:15.659Z,25.60
2018-11-04T01:50:44.933Z,26.80
2018-11-04T01:53:14.078Z,24.90
2018-11-04T01:55:43.161Z,25.97
2018-11-04T01:58:12.274Z,27.27
2018-11-04T02:00:41.372Z,30.40
2018-11-04T02:03:10.476Z,27.33
2018-11-04T02:05:39.590Z,28.27
2018-11-04T02:08:08.691Z,26.60
2018-11-04T02:10:37.855Z,30.93
2018-11-04T02:13:07.043Z,31.00
2018-11-04T02:15:36.146Z,32.37
2018-11-04T02:18:04.974Z,30.43
2018-11-04T02:20:34.109Z,27.23
2018-11-04T02:23:02.929Z,25.50
2018-11-04T02:25:32.066Z,25.23
2018-11-04T02:28:01.195Z,26.70
2018-11-04T02:30:30.299Z,29.57
2018-11-04T02:32:59.106Z,29.33
2018-11-04T02:35:28.019Z,29.10
2018-11-04T02:37:57.290Z,28.13
2018-11-04T02:40:26.309Z,26.50
2018-11-04T02:42:55.458Z,23.63
2018-11-04T02:45:24.266Z,25.63
2018-11-04T02:47:53.124Z,26.97
2018-11-04T02:50:22.143Z,25.77
2018-11-04T02:52:51.400Z,25.90
2018-11-04T02:55:20.522Z,25.90
2018-11-04T02:57:49.568Z,27.33
2018-11-04T03:00:18.711Z,27.27
2018-11-04T03:02:47.709Z,27.37
2018-11-04T03:05:16.650Z,26.87
2018-11-04T03:07:45.733Z,28.53
2018-11-04T03:10:15.295Z,27.87
2018-11-04T03:12:44.464Z,27.97
2018-11-04T03:15:13.675Z,27.93
2018-11-04T03:17:42.866Z,29.27
2018-11-04T03:20:11.983Z,30.17
2018-11-04T03:22:40.856Z,30.40
2018-11-04T03:25:09.899Z,29.30
2018-11-04T03:27:39.158Z,29.87
2018-11-04T03:30:09.070Z,28.37
2018-11-04T03:32:38.074Z,28.93
2018-11-04T03:35:07.262Z,27.83
2018-11-04T03:37:36.355Z,25.50
2018-11-04T03:40:06.403Z,24.57
2018-11-04T03:42:35.462Z,27.30
2018-11-04T03:45:04.694Z,24.97
2018-11-04T03:47:33.811Z,23.80
2018-11-04T03:50:02.644Z,23.47
2018-11-04T03:52:31.719Z,24.67
2018-11-04T03:55:00.834Z,24.00
2018-11-04T03:57:29.938Z,25.03
2018-11-04T03:59:59.265Z,23.40
2018-11-04T04:02:28.290Z,24.63
2018-11-04T04:04:57.426Z,23.90
2018-11-04T04:07:26.766Z,25.23
2018-11-04T04:09:56.036Z,22.87
2018-11-04T04:12:25.266Z,23.13
2018-11-04T04:14:54.389Z,22.13
2018-11-04T04:17:23.653Z,22.33
2018-11-04T04:19:52.780Z,22.90
2018-11-04T04:22:21.900Z,21.67
2018-11-04T04:24:51.258Z,21.23
2018-11-04T04:27:20.338Z,21.17
2018-11-04T04:29:49.491Z,20.50
2018-11-04T04:32:18.581Z,21.43
2018-11-04T04:34:47.719Z,21.40
2018-11-04T04:37:16.538Z,20.57
2018-11-04T04:39:45.596Z,20.87
2018-11-04T04:42:14.806Z,19.97
2018-11-04T04:44:43.995Z,21.27
2018-11-04T04:47:13.101Z,19.53
2018-11-04T04:49:41.994Z,19.53
2018-11-04T04:52:11.086Z,19.67
2018-11-04T04:54:40.151Z,19.90
2018-11-04T04:57:09.478Z,19.77
2018-11-04T04:59:38.565Z,20.00
2018-11-04T05:02:07.882Z,22.37
2018-11-04T05:04:37.107Z,21.80
2018-11-04T05:07:06.272Z,22.33
2018-11-04T05:09:35.500Z,19.67
2018-11-04T05:12:04.490Z,22.63
2018-11-04T05:14:33.503Z,22.93
2018-11-04T05:17:02.815Z,21.37
2018-11-04T05:19:31.951Z,23.13
2018-11-04T05:22:00.996Z,20.37
2018-11-04T05:24:30.191Z,29.37
2018-11-04T05:26:59.486Z,29.73
2018-11-04T05:29:28.590Z,27.00
2018-11-04T05:31:57.566Z,25.37
2018-11-04T05:34:26.581Z,23.27
2018-11-04T05:36:55.751Z,22.73
2018-11-04T05:39:25.046Z,23.50
2018-11-04T05:41:54.056Z,24.23
2018-11-04T05:44:23.244Z,23.67
2018-11-04T05:46:52.071Z,21.97
2018-11-04T05:49:21.165Z,23.10
2018-11-04T05:51:50.178Z,21.63
2018-11-04T05:54:19.386Z,30.37
2018-11-04T05:56:48.087Z,31.77
2018-11-04T05:59:17.146Z,28.33
2018-11-04T06:01:46.342Z,22.17
2018-11-04T06:04:15.634Z,21.00
2018-11-04T06:06:44.741Z,21.53
2018-11-04T06:09:13.924Z,19.07
2018-11-04T06:11:43.042Z,18.40
2018-11-04T06:14:12.267Z,17.90
2018-11-04T06:16:41.413Z,20.57
2018-11-04T06:19:10.530Z,20.23
2018-11-04T06:21:39.539Z,20.33
2018-11-04T06:24:08.350Z,19.43
2018-11-04T06:26:37.562Z,18.83
2018-11-04T06:29:06.758Z,20.97
2018-11-04T06:31:35.915Z,21.00
2018-11-04T06:34:04.918Z,27.03
2018-11-04T06:36:34.137Z,30.73
2018-11-04T06:39:03.362Z,31.50
2018-11-04T06:41:32.520Z,41.00
2018-11-04T06:44:01.483Z,43.47
2018-11-04T06:46:30.618Z,41.00
2018-11-04T06:48:59.615Z,37.73
2018-11-04T06:51:28.437Z,32.37
2018-11-04T06:53:57.258Z,31.40
2018-11-04T06:56:26.471Z,30.47
2018-11-04T06:58:55.688Z,30.93
2018-11-04T07:01:24.827Z,30.53
2018-11-04T07:04:04.497Z,33.27
2018-11-04T07:06:33.618Z,31.03
2018-11-04T07:09:02.885Z,27.90
2018-11-04T07:11:31.845Z,29.33
2018-11-04T07:14:00.723Z,30.70
2018-11-04T07:16:29.877Z,32.03
2018-11-04T07:18:58.930Z,32.77
2018-11-04T07:21:28.087Z,33.23
2018-11-04T07:23:57.214Z,34.93
2018-11-04T07:26:26.286Z,33.90
2018-11-04T07:28:55.075Z,32.23
2018-11-04T07:31:24.091Z,30.57
2018-11-04T07:33:52.963Z,29.77
2018-11-04T07:36:22.262Z,37.00
2018-11-04T07:38:51.397Z,39.20
2018-11-04T07:41:20.978Z,34.57
2018-11-04T07:43:50.386Z,41.03
2018-11-04T07:46:19.730Z,39.80
2018-11-04T07:48:49.386Z,38.87
2018-11-04T07:51:18.793Z,33.90
2018-11-04T07:53:48.061Z,31.87
2018-11-04T07:56:17.146Z,30.00
2018-11-04T07:58:46.372Z,26.17
2018-11-04T08:01:15.379Z,25.67
2018-11-04T08:03:44.475Z,25.17
2018-11-04T08:06:13.562Z,25.33
2018-11-04T08:08:42.815Z,24.67
2018-11-04T08:11:11.835Z,24.47
2018-11-04T08:13:41.116Z,22.40
2018-11-04T08:16:10.355Z,21.27
2018-11-04T08:18:39.361Z,20.77
2018-11-04T08:21:08.214Z,20.43
2018-11-04T08:23:37.478Z,20.20
2018-11-04T08:26:06.497Z,21.50
2018-11-04T08:28:35.522Z,19.63
2018-11-04T08:31:04.427Z,20.33
2018-11-04T08:33:33.510Z,20.20
2018-11-04T08:36:02.741Z,18.93
2018-11-04T08:38:32.176Z,20.07
2018-11-04T08:41:01.092Z,18.23
2018-11-04T08:43:30.106Z,20.20
2018-11-04T08:45:58.872Z,23.70
2018-11-04T08:48:27.937Z,19.03
2018-11-04T08:50:57.201Z,18.73
2018-11-04T08:53:26.404Z,18.97
2018-11-04T08:55:55.483Z,26.90
2018-11-04T08:58:24.635Z,22.80
2018-11-04T09:00:53.775Z,21.50
2018-11-04T09:03:22.650Z,17.07
2018-11-04T09:05:51.826Z,15.43
2018-11-04T09:08:20.759Z,16.13
2018-11-04T09:10:50.127Z,15.70
2018-11-04T09:13:19.273Z,13.30
2018-11-04T09:15:48.220Z,13.17
2018-11-04T09:18:17.324Z,13.20
2018-11-04T09:20:46.454Z,14.87
2018-11-04T09:23:15.392Z,11.50
2018-11-04T09:25:44.754Z,11.10
2018-11-04T09:28:14.015Z,11.00
2018-11-04T09:30:43.151Z,11.93
2018-11-04T09:33:12.345Z,14.20
2018-11-04T09:35:41.626Z,14.57
2018-11-04T09:38:10.363Z,14.87
2018-11-04T09:40:39.326Z,15.83
2018-11-04T09:43:08.430Z,14.07
2018-11-04T09:45:37.539Z,14.80
2018-11-04T09:48:07.018Z,15.47
2018-11-04T09:50:35.850Z,16.10
2018-11-04T09:53:04.718Z,16.07
2018-11-04T09:55:33.826Z,14.63
2018-11-04T09:58:02.654Z,14.73
2018-11-04T10:00:31.601Z,12.57
2018-11-04T10:03:00.360Z,14.13
2018-11-04T10:05:29.196Z,11.90
2018-11-04T10:07:58.239Z,11.60
2018-11-04T10:10:27.398Z,11.27
2018-11-04T10:12:56.337Z,12.43
2018-11-04T10:15:25.611Z,12.23
2018-11-04T10:17:54.484Z,12.73
2018-11-04T10:20:23.963Z,13.40
2018-11-04T10:22:52.593Z,11.50
2018-11-04T10:25:21.748Z,11.53
2018-11-04T10:27:50.795Z,11.50
2018-11-04T10:30:19.934Z,10.53
2018-11-04T10:32:48.993Z,11.83
2018-11-04T10:35:18.261Z,11.37
2018-11-04T10:37:47.279Z,11.03
2018-11-04T10:40:16.413Z,12.73
2018-11-04T10:42:45.506Z,11.77
2018-11-04T10:45:14.631Z,12.67
2018-11-04T10:47:43.810Z,11.47
2018-11-04T10:50:13.408Z,11.97
2018-11-04T10:52:42.375Z,12.17
2018-11-04T10:55:11.849Z,11.83
2018-11-04T10:57:40.802Z,13.27
2018-11-04T11:00:16.050Z,11.30
2018-11-04T11:02:45.980Z,13.50
2018-11-04T11:05:14.774Z,12.37
2018-11-04T11:07:43.778Z,11.07
2018-11-04T11:10:12.867Z,12.20
2018-11-04T11:12:42.052Z,11.07
2018-11-04T11:15:11.586Z,10.57
2018-11-04T11:17:40.978Z,9.53
2018-11-04T11:20:10.801Z,10.03
2018-11-04T11:22:40.163Z,9.93
2018-11-04T11:25:09.607Z,41.00
2018-11-04T11:27:38.580Z,21.23
2018-11-04T11:30:07.709Z,11.93
2018-11-04T11:32:36.851Z,11.97
2018-11-04T11:35:06.478Z,11.20
2018-11-04T11:37:35.790Z,8.90
2018-11-04T11:40:05.027Z,9.23
2018-11-04T11:42:34.194Z,9.20
2018-11-04T11:45:03.011Z,9.53
2018-11-04T11:47:32.275Z,9.90
2018-11-04T11:50:01.188Z,8.85
2018-11-04T11:52:30.376Z,7.55
2018-11-04T11:54:59.528Z,7.03
2018-11-04T11:57:28.623Z,7.10
2018-11-04T11:59:57.611Z,7.72
2018-11-04T12:02:26.865Z,8.13
2018-11-04T12:04:56.062Z,8.20
2018-11-04T12:07:25.302Z,7.37
2018-11-04T12:09:54.255Z,6.28
2018-11-04T12:12:23.002Z,7.87
2018-11-04T12:14:52.206Z,6.67
2018-11-04T12:17:21.321Z,6.90
2018-11-04T12:19:50.462Z,6.85
2018-11-04T12:22:19.570Z,7.08
2018-11-04T12:24:48.431Z,6.85
2018-11-04T12:27:17.458Z,8.98
2018-11-04T12:29:46.553Z,6.75
2018-11-04T12:32:15.611Z,7.28
2018-11-04T12:34:44.866Z,7.53
2018-11-04T12:37:14.112Z,10.38
2018-11-04T12:39:43.143Z,11.38
2018-11-04T12:42:12.200Z,7.72
2018-11-04T12:44:41.309Z,8.15
2018-11-04T12:47:10.502Z,7.75
2018-11-04T12:49:39.297Z,7.23
2018-11-04T12:52:08.359Z,7.00
2018-11-04T12:54:37.278Z,7.73
2018-11-04T12:57:06.939Z,7.60
2018-11-04T12:59:36.046Z,7.90
2018-11-04T13:02:05.310Z,8.20
2018-11-04T13:04:34.230Z,9.80
2018-11-04T13:07:03.119Z,16.50
2018-11-04T13:09:31.912Z,6.97
2018-11-04T13:12:00.894Z,8.60
2018-11-04T13:14:30.154Z,7.00
2018-11-04T13:16:59.391Z,7.57
2018-11-04T13:19:28.485Z,6.83
2018-11-04T13:21:57.217Z,7.47
2018-11-04T13:24:26.035Z,7.90
2018-11-04T13:26:55.143Z,7.67
2018-11-04T13:29:24.193Z,7.40
2018-11-04T13:31:53.237Z,7.10
2018-11-04T13:34:22.283Z,6.90
2018-11-04T13:36:51.435Z,7.43
2018-11-04T13:39:20.523Z,7.97
2018-11-04T13:41:49.378Z,7.83
2018-11-04T13:44:18.306Z,7.10
2018-11-04T13:46:47.518Z,7.90
2018-11-04T13:49:16.670Z,9.00
2018-11-04T13:51:45.771Z,9.30
2018-11-04T13:54:14.954Z,9.43
2018-11-04T13:56:43.806Z,9.00
2018-11-04T13:59:12.634Z,11.87
2018-11-04T14:01:41.821Z,12.90
2018-11-04T14:04:11.019Z,8.10
2018-11-04T14:06:40.249Z,9.20
2018-11-04T14:09:09.862Z,9.57
2018-11-04T14:11:39.094Z,7.03
2018-11-04T14:14:08.090Z,9.23
2018-11-04T14:16:36.917Z,7.60
2018-11-04T14:19:06.207Z,12.43
2018-11-04T14:21:36.110Z,16.97
2018-11-04T14:24:05.140Z,22.43
2018-11-04T14:26:34.274Z,13.13
2018-11-04T14:29:03.211Z,14.03
2018-11-04T14:31:32.331Z,13.07
2018-11-04T14:34:01.572Z,13.10
2018-11-04T14:36:30.545Z,10.57
2018-11-04T14:38:59.563Z,29.27
2018-11-04T14:41:28.566Z,32.67
2018-11-04T14:43:57.906Z,17.57
2018-11-04T14:46:26.971Z,12.20
2018-11-04T14:48:56.198Z,9.57
2018-11-04T14:51:25.502Z,9.27
2018-11-04T14:53:54.556Z,8.03
2018-11-04T14:56:28.294Z,8.97
2018-11-04T14:58:57.804Z,10.50
2018-11-04T15:01:27.311Z,13.27
2018-11-04T15:03:56.216Z,13.70
2018-11-04T15:06:25.907Z,12.13
2018-11-04T15:08:55.011Z,40.93
2018-11-04T15:11:24.159Z,17.43
2018-11-04T15:13:53.355Z,30.10
2018-11-04T15:16:22.034Z,18.23
2018-11-04T15:18:51.289Z,24.37
2018-11-04T15:21:20.062Z,14.23
2018-11-04T15:23:49.304Z,19.07
2018-11-04T15:26:18.464Z,13.17
2018-11-04T15:28:48.395Z,12.30
2018-11-04T15:31:17.431Z,26.27
2018-11-04T15:33:46.270Z,30.00
2018-11-04T15:36:15.402Z,37.27
2018-11-04T15:38:44.407Z,66.30
2018-11-04T15:41:13.503Z,85.67
2018-11-04T15:43:42.440Z,75.73
2018-11-04T15:46:11.602Z,56.83
2018-11-04T15:48:40.556Z,57.67
2018-11-04T15:51:09.563Z,59.03
2018-11-04T15:53:38.766Z,55.43
2018-11-04T15:56:08.046Z,47.43
2018-11-04T15:58:37.288Z,50.30
2018-11-04T16:01:06.485Z,16.33
2018-11-04T16:03:35.638Z,11.97
2018-11-04T16:06:04.700Z,11.27
2018-11-04T16:08:33.577Z,10.77
2018-11-04T16:11:02.411Z,8.77
2018-11-04T16:13:31.431Z,9.83
2018-11-04T16:16:00.654Z,10.27
2018-11-04T16:18:29.551Z,21.70
2018-11-04T16:20:58.714Z,16.97
2018-11-04T16:23:27.810Z,27.33
2018-11-04T16:25:57.099Z,34.00
2018-11-04T16:28:26.291Z,20.70
2018-11-04T16:30:55.594Z,12.30
2018-11-04T16:33:24.802Z,23.33
2018-11-04T16:35:54.090Z,13.67
2018-11-04T16:38:23.212Z,14.70
2018-11-04T16:40:52.262Z,27.13
2018-11-04T16:43:21.584Z,11.70
2018-11-04T16:45:50.862Z,21.33
2018-11-04T16:48:20.015Z,14.33
2018-11-04T16:50:49.018Z,16.80
2018-11-04T16:53:17.998Z,24.60
2018-11-04T16:55:47.203Z,20.93
2018-11-04T16:58:16.341Z,15.17
2018-11-04T17:00:45.346Z,14.30
2018-11-04T17:03:15.051Z,18.37
2018-11-04T17:05:44.716Z,22.30
2018-11-04T17:08:13.758Z,21.20
2018-11-04T17:10:43.823Z,26.57
2018-11-04T17:13:13.079Z,34.03
2018-11-04T17:15:43.045Z,20.10
2018-11-04T17:18:12.727Z,26.07
2018-11-04T17:20:43.190Z,22.83
2018-11-04T17:23:12.224Z,18.40
2018-11-04T17:25:41.523Z,20.77
2018-11-04T17:28:10.710Z,14.20
2018-11-04T17:30:39.793Z,17.27
2018-11-04T17:33:08.592Z,16.47
2018-11-04T17:35:37.670Z,13.90
2018-11-04T17:38:06.874Z,12.37
2018-11-04T17:40:36.426Z,11.10
2018-11-04T17:43:06.040Z,10.37
2018-11-04T17:45:35.367Z,10.60
2018-11-04T17:48:04.469Z,9.80
2018-11-04T17:50:34.217Z,9.73
2018-11-04T17:53:03.374Z,9.90
2018-11-04T17:55:32.313Z,12.40
2018-11-04T17:58:01.814Z,21.80
2018-11-04T18:00:32.218Z,23.00
2018-11-04T18:03:03.224Z,23.43
2018-11-04T18:05:32.966Z,14.73
2018-11-04T18:08:02.121Z,11.63
2018-11-04T18:10:31.699Z,15.17
2018-11-04T18:13:00.868Z,10.10
2018-11-04T18:15:29.882Z,14.50
2018-11-04T18:17:58.826Z,12.93
2018-11-04T18:20:28.827Z,15.70
2018-11-04T18:22:57.842Z,11.27
2018-11-04T18:25:26.886Z,17.00
2018-11-04T18:27:55.950Z,40.63
2018-11-04T18:30:25.072Z,57.37
2018-11-04T18:32:53.990Z,63.13
2018-11-04T18:35:22.961Z,18.30
2018-11-04T18:37:52.091Z,26.67
2018-11-04T18:40:21.221Z,31.00
2018-11-04T18:42:50.493Z,18.47
2018-11-04T18:45:19.831Z,13.57
2018-11-04T18:47:49.164Z,14.17
2018-11-04T18:50:18.280Z,13.60
2018-11-04T18:52:47.501Z,8.13
2018-11-04T18:55:16.989Z,8.70
2018-11-04T18:57:46.209Z,8.10
2018-11-04T19:00:17.419Z,14.63
2018-11-04T19:02:47.194Z,18.17
2018-11-04T19:05:16.525Z,13.90
2018-11-04T19:07:45.690Z,15.43
2018-11-04T19:10:16.805Z,15.83
2018-11-04T19:12:45.668Z,14.10
2018-11-04T19:15:14.841Z,11.20
2018-11-04T19:17:43.671Z,11.27
2018-11-04T19:20:14.093Z,14.87
2018-11-04T19:22:43.238Z,18.20
2018-11-04T19:25:13.561Z,19.13
2018-11-04T19:27:42.674Z,20.10
2018-11-04T19:30:17.534Z,18.43
2018-11-04T19:32:47.006Z,17.47
2018-11-04T19:35:17.482Z,28.67
2018-11-04T19:37:46.613Z,31.43
2018-11-04T19:40:16.409Z,25.50
2018-11-04T19:42:45.721Z,18.60
2018-11-04T19:45:15.652Z,17.70
2018-11-04T19:47:44.803Z,15.87
2018-11-04T19:50:14.324Z,15.97
2018-11-04T19:52:43.829Z,17.80
2018-11-04T19:55:13.402Z,16.40
2018-11-04T19:57:42.262Z,16.30
2018-11-04T20:00:12.543Z,19.63
2018-11-04T20:02:41.791Z,17.27
2018-11-04T20:05:11.865Z,15.77
2018-11-04T20:07:40.629Z,16.63
2018-11-04T20:10:11.190Z,12.30
2018-11-04T20:12:45.266Z,12.00
2018-11-04T20:15:14.443Z,12.40
2018-11-04T20:17:43.956Z,11.10
2018-11-04T20:20:17.796Z,12.00
2018-11-04T20:22:46.864Z,13.50
2018-11-04T20:25:20.843Z,13.80
2018-11-04T20:27:49.707Z,14.00
2018-11-04T20:30:18.835Z,13.77
2018-11-04T20:32:52.980Z,14.10
2018-11-04T20:35:21.807Z,16.37
2018-11-04T20:37:50.686Z,16.17
2018-11-04T20:40:24.888Z,17.67
2018-11-04T20:42:53.773Z,16.70
2018-11-04T20:45:22.820Z,15.57
2018-11-04T20:47:56.958Z,17.77
2018-11-04T20:50:31.054Z,20.97
2018-11-04T20:53:00.355Z,19.33
2018-11-04T20:55:34.534Z,22.47
2018-11-04T20:58:03.870Z,23.37
2018-11-04T21:00:33.114Z,20.03
2018-11-04T21:03:02.267Z,22.60
2018-11-04T21:05:31.344Z,23.43
2018-11-04T21:08:00.363Z,20.77
2018-11-04T21:10:29.530Z,16.63
2018-11-04T21:12:58.525Z,12.37
2018-11-04T21:15:27.634Z,10.30
2018-11-04T21:17:56.455Z,15.07
2018-11-04T21:20:25.787Z,15.73
2018-11-04T21:22:54.913Z,23.37
2018-11-04T21:25:24.361Z,27.80
2018-11-04T21:27:53.416Z,29.17
2018-11-04T21:30:22.277Z,21.20
2018-11-04T21:32:51.511Z,29.63
2018-11-04T21:35:20.650Z,31.60
2018-11-04T21:37:49.836Z,14.93
2018-11-04T21:40:18.956Z,10.47
2018-11-04T21:42:48.041Z,8.20
2018-11-04T21:45:17.049Z,8.77
2018-11-04T21:47:45.850Z,6.57
2018-11-04T21:50:15.054Z,8.03
2018-11-04T21:52:44.277Z,7.37
2018-11-04T21:55:14.043Z,9.00
2018-11-04T21:57:44.122Z,9.83
2018-11-04T22:00:14.658Z,10.17
2018-11-04T22:02:44.166Z,7.13
2018-11-04T22:05:13.435Z,8.13
2018-11-04T22:07:43.522Z,8.50
2018-11-04T22:10:14.149Z,7.57
2018-11-04T22:12:43.499Z,7.87
2018-11-04T22:15:12.499Z,7.70
2018-11-04T22:17:42.307Z,7.60
2018-11-04T22:20:12.830Z,8.03
2018-11-04T22:22:42.080Z,6.50
2018-11-04T22:25:11.692Z,6.83
2018-11-04T22:27:40.806Z,6.93
2018-11-04T22:30:11.290Z,7.80
2018-11-04T22:32:40.521Z,7.90
2018-11-04T22:35:11.103Z,7.53
2018-11-04T22:37:40.378Z,8.97
2018-11-04T22:40:11.080Z,8.57
2018-11-04T22:42:41.094Z,9.20
2018-11-04T22:45:11.498Z,9.27
2018-11-04T22:47:41.570Z,8.27
2018-11-04T22:50:13.138Z,8.87
2018-11-04T22:52:42.502Z,8.80
2018-11-04T22:55:12.403Z,9.23
2018-11-04T22:57:41.373Z,9.43
2018-11-04T23:00:16.554Z,9.93
2018-11-04T23:02:46.490Z,9.77
2018-11-04T23:05:20.622Z,10.17
2018-11-04T23:07:49.707Z,11.03
2018-11-04T23:10:18.865Z,11.37
2018-11-04T23:12:47.688Z,12.10
2018-11-04T23:15:16.827Z,12.73
2018-11-04T23:17:45.800Z,11.77
2018-11-04T23:20:14.961Z,14.27
2018-11-04T23:22:44.114Z,17.10
2018-11-04T23:25:14.169Z,18.43
2018-11-04T23:27:43.629Z,16.47
2018-11-04T23:30:15.067Z,14.70
2018-11-04T23:32:44.735Z,12.83
2018-11-04T23:35:14.026Z,11.20
2018-11-04T23:37:44.253Z,10.83
2018-11-04T23:40:13.373Z,11.20
2018-11-04T23:42:42.600Z,11.37
2018-11-04T23:45:13.321Z,11.70
2018-11-04T23:47:42.426Z,11.03
2018-11-04T23:50:13.965Z,11.90
2018-11-04T23:52:43.535Z,11.77
2018-11-04T23:55:13.590Z,10.97
2018-11-04T23:57:42.843Z,12.67
